Time;durP1;ratioP1;P1;durP2;ratioP2;P2;SDS_P1;SDS_P2;PMS_P1;PMS_P2;Temp;Humidity;BMP_temperature;BMP_pressure;BME280_temperature;BME280_humidity;BME280_pressure;Samples;Min_cycle;Max_cycle;Signal;HPM_P1;HPM_P2
2023/05/12 00:00:47;;;;;;;14.07;11.70;;;13.10;99.90;;;;;;5115157;28;20532;-46
2023/05/12 00:03:12;;;;;;;16.30;11.87;;;13.10;99.90;;;;;;5115356;28;20556;-44
2023/05/12 00:05:38;;;;;;;14.00;11.03;;;13.10;99.90;;;;;;5113818;28;20294;-45
2023/05/12 00:08:04;;;;;;;14.43;11.00;;;13.10;99.90;;;;;;5115502;28;20186;-44
2023/05/12 00:10:29;;;;;;;12.80;10.20;;;13.10;99.90;;;;;;5115221;28;20191;-46
2023/05/12 00:12:55;;;;;;;12.77;10.27;;;13.10;99.90;;;;;;5119190;28;20200;-47
2023/05/12 00:15:21;;;;;;;12.87;9.60;;;13.10;99.90;;;;;;5121048;28;20665;-45
2023/05/12 00:17:47;;;;;;;11.10;9.40;;;13.10;99.90;;;;;;5117180;28;20212;-45
2023/05/12 00:20:12;;;;;;;10.87;9.40;;;13.10;99.90;;;;;;5114816;28;20198;-45
2023/05/12 00:22:38;;;;;;;10.77;9.27;;;13.10;99.90;;;;;;5115046;28;20200;-46
2023/05/12 00:25:04;;;;;;;11.53;9.13;;;13.10;99.90;;;;;;5114963;28;20590;-46
2023/05/12 00:27:30;;;;;;;10.80;9.27;;;13.10;99.90;;;;;;5115067;28;20196;-44
2023/05/12 00:29:57;;;;;;;11.33;9.30;;;13.10;99.90;;;;;;5114767;28;20182;-47
2023/05/12 00:32:23;;;;;;;11.43;9.00;;;13.10;99.90;;;;;;5114904;28;20259;-46
2023/05/12 00:34:49;;;;;;;11.30;8.43;;;13.10;99.90;;;;;;5114803;28;20178;-45
2023/05/12 00:37:15;;;;;;;9.93;8.87;;;13.10;99.90;;;;;;5114468;28;20194;-45
2023/05/12 00:39:41;;;;;;;10.10;8.87;;;13.10;99.90;;;;;;5114454;28;20181;-44
2023/05/12 00:42:07;;;;;;;9.40;8.23;;;13.10;99.90;;;;;;5114321;28;20211;-44
2023/05/12 00:44:33;;;;;;;10.20;8.83;;;13.00;99.90;;;;;;5114464;28;20222;-44
2023/05/12 00:46:58;;;;;;;10.90;8.27;;;13.00;99.90;;;;;;5114317;28;20188;-45
2023/05/12 00:49:25;;;;;;;8.47;7.60;;;13.00;99.90;;;;;;5114353;28;20179;-44
2023/05/12 00:51:54;;;;;;;9.60;8.17;;;13.00;99.90;;;;;;5115244;28;20188;-43
2023/05/12 00:54:19;;;;;;;9.40;7.57;;;13.00;99.90;;;;;;5114140;28;20198;-47
2023/05/12 00:56:45;;;;;;;9.20;7.83;;;13.00;99.90;;;;;;5114070;28;20225;-45
2023/05/12 00:59:11;;;;;;;10.33;7.80;;;13.00;99.90;;;;;;5113844;28;20219;-46
2023/05/12 01:01:37;;;;;;;7.93;7.00;;;13.00;99.90;;;;;;5114774;28;20600;-48
2023/05/12 01:04:03;;;;;;;7.20;6.47;;;13.00;99.90;;;;;;5114282;28;20195;-48
2023/05/12 01:06:52;;;;;;;7.00;6.30;;;13.00;99.90;;;;;;5114333;28;20179;-49
2023/05/12 01:09:18;;;;;;;7.00;6.30;;;13.00;99.90;;;;;;5114005;28;20171;-47
2023/05/12 01:11:44;;;;;;;7.30;6.07;;;13.00;99.90;;;;;;5112964;28;20649;-48
2023/05/12 01:14:09;;;;;;;8.30;5.50;;;13.00;99.90;;;;;;5113875;28;20282;-47
2023/05/12 01:16:40;;;;;;;6.27;5.67;;;13.00;99.90;;;;;;5114181;28;20187;-48
2023/05/12 01:19:09;;;;;;;6.97;5.20;;;13.00;99.90;;;;;;5114122;28;20179;-47
2023/05/12 01:21:35;;;;;;;7.07;5.43;;;13.00;99.90;;;;;;5113987;28;20544;-48
2023/05/12 01:24:06;;;;;;;5.60;5.07;;;13.00;99.90;;;;;;5113762;28;20252;-47
2023/05/12 01:26:32;;;;;;;5.67;4.67;;;12.90;99.90;;;;;;5114179;28;20159;-48
2023/05/12 01:29:00;;;;;;;4.60;4.07;;;12.90;99.90;;;;;;5114101;28;20181;-47
2023/05/12 01:31:26;;;;;;;4.17;3.77;;;12.90;99.90;;;;;;5113684;28;20650;-46
2023/05/12 01:33:52;;;;;;;4.60;4.20;;;12.80;99.90;;;;;;5113673;28;20197;-48
2023/05/12 01:36:17;;;;;;;5.13;4.63;;;12.80;99.90;;;;;;5113837;28;20284;-49
2023/05/12 01:38:43;;;;;;;6.73;4.93;;;12.70;99.90;;;;;;5114118;28;20302;-48
2023/05/12 01:41:08;;;;;;;7.00;5.57;;;12.70;99.90;;;;;;5114064;28;20201;-48
2023/05/12 01:43:34;;;;;;;5.90;5.30;;;12.70;99.90;;;;;;5114485;28;20242;-47
2023/05/12 01:46:00;;;;;;;5.23;4.73;;;12.60;99.90;;;;;;5114497;28;20538;-48
2023/05/12 01:48:25;;;;;;;6.10;5.50;;;12.60;99.90;;;;;;5113671;28;20207;-48
2023/05/12 01:50:51;;;;;;;6.03;5.27;;;12.60;99.90;;;;;;5113787;28;20569;-49
2023/05/12 01:53:16;;;;;;;6.10;5.03;;;12.60;99.90;;;;;;5113670;28;20585;-48
2023/05/12 01:55:42;;;;;;;4.13;3.73;;;12.60;99.90;;;;;;5113828;28;20606;-50
2023/05/12 01:58:07;;;;;;;4.20;3.80;;;12.50;99.90;;;;;;5113552;28;20178;-49
2023/05/12 02:00:33;;;;;;;4.13;3.73;;;12.50;99.90;;;;;;5113746;28;20207;-49
2023/05/12 02:02:58;;;;;;;4.13;3.73;;;12.50;99.90;;;;;;5113659;28;20191;-49
2023/05/12 02:05:24;;;;;;;4.43;4.00;;;12.60;99.90;;;;;;5113474;28;20257;-49
2023/05/12 02:07:50;;;;;;;5.00;3.67;;;12.50;99.90;;;;;;5113543;28;20177;-49
2023/05/12 02:10:16;;;;;;;3.97;3.57;;;12.50;99.90;;;;;;5095083;28;20183;-49
2023/05/12 02:12:42;;;;;;;4.40;3.73;;;12.50;99.90;;;;;;5113357;28;20576;-49
2023/05/12 02:15:08;;;;;;;4.37;3.93;;;12.50;99.90;;;;;;5113411;28;20189;-45
2023/05/12 02:17:33;;;;;;;4.77;3.63;;;12.50;99.90;;;;;;5113643;28;20609;-46
2023/05/12 02:19:59;;;;;;;4.20;3.80;;;12.50;99.90;;;;;;5113233;28;20182;-49
2023/05/12 02:22:25;;;;;;;4.30;3.90;;;12.50;99.90;;;;;;5114850;28;20213;-48
2023/05/12 02:24:51;;;;;;;4.03;3.37;;;12.50;99.90;;;;;;5117090;28;20727;-47
2023/05/12 02:27:16;;;;;;;4.33;3.93;;;12.40;99.90;;;;;;5117308;28;20256;-48
2023/05/12 02:29:42;;;;;;;3.83;3.40;;;12.40;99.90;;;;;;5117212;28;20183;-47
2023/05/12 02:32:07;;;;;;;4.17;3.77;;;12.40;99.90;;;;;;5117135;28;20213;-47
2023/05/12 02:34:33;;;;;;;4.37;3.97;;;12.40;99.90;;;;;;5115660;28;20193;-47
2023/05/12 02:36:59;;;;;;;4.13;3.70;;;12.40;99.90;;;;;;5115743;28;20201;-47
2023/05/12 02:39:25;;;;;;;3.90;3.50;;;12.40;99.90;;;;;;5117172;28;20638;-48
2023/05/12 02:41:50;;;;;;;4.33;3.67;;;12.40;99.90;;;;;;5116926;28;20258;-47
2023/05/12 02:44:16;;;;;;;3.20;2.90;;;12.40;99.90;;;;;;5116917;28;20679;-48
2023/05/12 02:46:42;;;;;;;3.60;3.17;;;12.40;99.90;;;;;;5117038;28;20182;-48
2023/05/12 02:49:08;;;;;;;3.20;2.90;;;12.40;99.90;;;;;;5116780;28;20193;-48
2023/05/12 02:51:33;;;;;;;3.27;2.90;;;12.40;99.90;;;;;;5116652;28;20190;-48
2023/05/12 02:53:59;;;;;;;2.77;2.53;;;12.30;99.90;;;;;;5116616;28;20202;-49
2023/05/12 02:56:24;;;;;;;2.93;2.67;;;12.40;99.90;;;;;;5116844;28;20178;-51
2023/05/12 02:58:50;;;;;;;2.60;2.40;;;12.30;99.90;;;;;;5116668;28;20190;-49
2023/05/12 03:01:15;;;;;;;2.37;2.17;;;12.30;99.90;;;;;;5114999;28;20229;-50
2023/05/12 03:03:41;;;;;;;1.77;1.67;;;12.30;99.90;;;;;;5116268;28;20727;-50
2023/05/12 03:06:07;;;;;;;3.63;1.40;;;12.20;99.90;;;;;;5116504;28;20182;-50
2023/05/12 03:08:33;;;;;;;1.80;1.70;;;12.20;99.90;;;;;;5116324;28;20668;-49
2023/05/12 03:10:58;;;;;;;1.47;1.37;;;12.10;99.90;;;;;;5116485;28;20522;-49
2023/05/12 03:13:24;;;;;;;1.40;1.30;;;12.10;99.90;;;;;;5116665;28;20701;-50
2023/05/12 03:15:49;;;;;;;1.37;1.27;;;12.10;99.90;;;;;;5115057;28;20209;-50
2023/05/12 03:18:15;;;;;;;1.77;1.47;;;12.10;99.90;;;;;;5114818;28;20707;-51
2023/05/12 03:20:40;;;;;;;1.40;1.30;;;12.00;99.90;;;;;;5115970;28;20228;-50
2023/05/12 03:23:06;;;;;;;2.80;1.63;;;12.10;99.90;;;;;;5115968;28;20190;-51
2023/05/12 03:25:33;;;;;;;2.10;1.90;;;12.10;99.90;;;;;;5116121;28;20167;-50
2023/05/12 03:28:00;;;;;;;2.40;2.20;;;12.10;99.90;;;;;;5116064;28;20174;-51
2023/05/12 03:30:26;;;;;;;2.20;2.10;;;12.10;99.90;;;;;;5116293;28;20258;-51
2023/05/12 03:32:51;;;;;;;2.27;2.07;;;12.10;99.90;;;;;;5115672;28;20218;-51
2023/05/12 03:35:17;;;;;;;2.23;2.03;;;12.10;99.90;;;;;;5115925;28;20186;-50
2023/05/12 03:37:42;;;;;;;3.23;1.87;;;12.10;99.90;;;;;;5115398;28;20194;-51
2023/05/12 03:40:09;;;;;;;1.60;1.50;;;12.10;99.90;;;;;;5115671;28;20232;-52
2023/05/12 03:42:34;;;;;;;1.77;1.67;;;12.10;99.90;;;;;;5115910;28;20670;-51
2023/05/12 03:45:00;;;;;;;1.20;1.10;;;12.10;99.90;;;;;;5115527;28;20188;-50
2023/05/12 03:47:25;;;;;;;1.57;1.47;;;12.10;99.90;;;;;;5115653;28;20171;-50
2023/05/12 03:49:51;;;;;;;1.30;1.20;;;12.10;99.90;;;;;;5115683;28;20170;-52
2023/05/12 03:52:17;;;;;;;0.97;0.93;;;12.10;99.90;;;;;;5115317;28;20245;-51
2023/05/12 03:54:43;;;;;;;1.10;1.00;;;12.10;99.90;;;;;;5115400;28;20702;-51
2023/05/12 03:57:08;;;;;;;1.30;1.20;;;12.10;99.90;;;;;;5115294;28;20202;-50
2023/05/12 03:59:34;;;;;;;1.00;0.90;;;12.10;99.90;;;;;;5115224;28;20178;-46
2023/05/12 04:02:00;;;;;;;2.83;1.23;;;12.10;99.90;;;;;;5115362;28;20607;-45
2023/05/12 04:04:26;;;;;;;1.20;0.97;;;12.10;99.90;;;;;;5115422;28;20169;-46
2023/05/12 04:06:51;;;;;;;1.10;0.90;;;12.10;99.90;;;;;;5115322;28;20666;-46
2023/05/12 04:09:17;;;;;;;0.90;0.90;;;12.10;99.90;;;;;;5115106;28;20245;-44
2023/05/12 04:11:42;;;;;;;1.20;1.10;;;12.00;99.90;;;;;;5113767;28;20201;-45
2023/05/12 04:14:08;;;;;;;1.20;1.07;;;12.10;99.90;;;;;;5113627;28;20197;-47
2023/05/12 04:16:34;;;;;;;1.23;1.13;;;12.00;99.90;;;;;;5097017;28;20190;-45
2023/05/12 04:19:00;;;;;;;1.40;1.30;;;12.10;99.90;;;;;;5114921;28;20170;-45
2023/05/12 04:21:26;;;;;;;1.93;1.30;;;12.10;99.90;;;;;;5113517;28;20294;-46
2023/05/12 04:23:52;;;;;;;1.37;1.27;;;12.10;99.90;;;;;;5114644;28;20704;-47
2023/05/12 04:26:17;;;;;;;1.30;1.13;;;12.10;99.90;;;;;;5114990;28;20173;-46
2023/05/12 04:28:43;;;;;;;1.00;1.00;;;12.10;99.90;;;;;;5115688;28;20174;-44
2023/05/12 04:31:09;;;;;;;1.20;1.10;;;12.10;99.90;;;;;;5114802;28;20182;-45
2023/05/12 04:33:34;;;;;;;1.20;1.10;;;12.10;99.90;;;;;;5115212;28;20680;-47
2023/05/12 04:36:00;;;;;;;1.27;1.10;;;12.10;99.90;;;;;;5114974;28;20588;-44
2023/05/12 04:38:26;;;;;;;1.20;1.10;;;12.10;99.90;;;;;;5114836;28;20626;-46
2023/05/12 04:40:57;;;;;;;1.17;1.07;;;12.10;99.90;;;;;;5115081;28;20202;-46
2023/05/12 04:43:23;;;;;;;0.90;0.90;;;12.10;99.90;;;;;;5115110;28;20197;-46
2023/05/12 04:45:50;;;;;;;1.10;1.00;;;12.10;99.90;;;;;;5114795;28;20505;-51
2023/05/12 04:48:15;;;;;;;1.50;1.10;;;12.10;99.90;;;;;;5114463;28;20175;-50
2023/05/12 04:50:41;;;;;;;1.20;1.10;;;12.10;99.90;;;;;;5114432;28;20264;-49
2023/05/12 04:53:07;;;;;;;1.37;1.10;;;12.10;99.90;;;;;;5114093;28;20190;-48
2023/05/12 04:55:32;;;;;;;0.83;0.83;;;12.10;99.90;;;;;;5114110;28;20224;-49
2023/05/12 04:57:58;;;;;;;1.20;1.10;;;12.20;99.90;;;;;;5114027;28;20182;-50
2023/05/12 05:00:24;;;;;;;1.07;1.00;;;12.20;99.90;;;;;;5113955;28;20276;-49
2023/05/12 05:02:49;;;;;;;1.30;1.20;;;12.20;99.90;;;;;;5114233;28;20527;-49
2023/05/12 05:05:15;;;;;;;1.20;1.10;;;12.20;99.90;;;;;;5114506;28;20174;-49
2023/05/12 05:07:40;;;;;;;1.80;1.10;;;12.20;99.90;;;;;;5114197;28;20189;-49
2023/05/12 05:10:06;;;;;;;1.30;1.20;;;12.20;99.90;;;;;;5113914;28;20174;-48
2023/05/12 05:12:32;;;;;;;1.07;1.07;;;12.30;99.90;;;;;;5113997;28;20240;-49
2023/05/12 05:14:58;;;;;;;1.33;1.23;;;12.30;99.90;;;;;;5114824;28;20216;-48
2023/05/12 05:17:23;;;;;;;1.00;0.90;;;12.40;99.90;;;;;;5114427;28;20256;-50
2023/05/12 05:19:49;;;;;;;0.83;0.83;;;12.40;99.90;;;;;;5114161;28;20178;-50
2023/05/12 05:22:15;;;;;;;1.20;1.10;;;12.40;99.90;;;;;;5114138;28;20562;-51
2023/05/12 05:24:41;;;;;;;2.07;0.80;;;12.40;99.90;;;;;;5113719;28;20197;-50
2023/05/12 05:27:06;;;;;;;0.90;0.90;;;12.40;99.90;;;;;;5114250;28;20220;-49
2023/05/12 05:29:32;;;;;;;1.67;0.90;;;12.40;99.90;;;;;;5113634;28;20285;-50
2023/05/12 05:31:57;;;;;;;1.40;1.30;;;12.40;99.90;;;;;;5114047;28;20186;-48
2023/05/12 05:34:23;;;;;;;1.33;1.23;;;12.40;99.90;;;;;;5113684;28;20208;-49
2023/05/12 05:36:48;;;;;;;1.63;1.43;;;12.50;99.90;;;;;;5113591;28;20190;-51
2023/05/12 05:39:14;;;;;;;1.57;1.47;;;12.50;99.90;;;;;;5113987;28;20231;-50
2023/05/12 05:41:39;;;;;;;2.23;1.70;;;12.50;99.90;;;;;;5113520;28;20202;-50
2023/05/12 05:44:05;;;;;;;2.97;1.80;;;12.50;99.90;;;;;;5113564;28;20198;-49
2023/05/12 05:46:30;;;;;;;2.23;1.83;;;12.50;99.90;;;;;;5113838;28;20257;-49
2023/05/12 05:48:56;;;;;;;2.03;1.60;;;12.60;99.90;;;;;;5113868;28;20166;-51
2023/05/12 05:51:22;;;;;;;3.87;1.80;;;12.60;99.90;;;;;;5112371;28;20208;-50
2023/05/12 05:53:47;;;;;;;3.30;1.90;;;12.60;99.90;;;;;;5113484;28;20194;-49
2023/05/12 05:56:13;;;;;;;6.63;1.93;;;12.60;99.90;;;;;;5113514;28;20227;-50
2023/05/12 05:58:38;;;;;;;2.90;1.87;;;12.60;99.90;;;;;;5115768;28;20282;-48
2023/05/12 06:01:04;;;;;;;5.03;1.83;;;12.60;99.90;;;;;;5117412;28;20205;-50
2023/05/12 06:03:30;;;;;;;3.23;2.17;;;12.70;99.90;;;;;;5117690;28;20367;-50
2023/05/12 06:05:56;;;;;;;5.50;2.17;;;12.70;99.90;;;;;;5117808;28;20182;-51
2023/05/12 06:08:21;;;;;;;2.90;1.90;;;12.70;99.90;;;;;;5117464;28;20162;-51
2023/05/12 06:10:47;;;;;;;5.83;2.43;;;12.70;99.90;;;;;;5117361;28;20189;-51
2023/05/12 06:13:12;;;;;;;3.10;1.93;;;12.80;99.90;;;;;;5117410;28;20204;-49
2023/05/12 06:15:38;;;;;;;8.20;2.30;;;12.80;99.90;;;;;;5117263;28;20178;-51
2023/05/12 06:18:03;;;;;;;3.47;2.20;;;12.90;99.90;;;;;;5117167;28;20177;-50
2023/05/12 06:20:30;;;;;;;4.27;2.20;;;12.90;99.90;;;;;;5117181;28;20609;-50
2023/05/12 06:22:56;;;;;;;3.20;2.20;;;13.00;99.90;;;;;;5117819;28;20202;-51
2023/05/12 06:25:21;;;;;;;3.60;2.10;;;13.00;99.90;;;;;;5116700;28;20231;-51
2023/05/12 06:27:50;;;;;;;2.40;2.07;;;13.10;99.90;;;;;;5117137;28;20178;-50
2023/05/12 06:30:16;;;;;;;2.80;2.13;;;13.10;99.90;;;;;;5118069;28;20223;-49
2023/05/12 06:32:41;;;;;;;2.87;2.30;;;13.10;99.90;;;;;;5115714;28;20197;-49
2023/05/12 06:35:07;;;;;;;4.47;2.37;;;13.20;99.90;;;;;;5116999;28;20181;-52
2023/05/12 06:37:33;;;;;;;6.47;2.30;;;13.20;99.90;;;;;;5116666;28;20657;-51
2023/05/12 06:39:58;;;;;;;2.27;2.07;;;13.20;99.90;;;;;;5117403;28;20303;-51
2023/05/12 06:42:24;;;;;;;2.47;2.27;;;13.20;99.90;;;;;;5117026;28;20210;-52
2023/05/12 06:44:50;;;;;;;2.17;2.00;;;13.30;99.90;;;;;;5116891;28;20174;-52
2023/05/12 06:47:16;;;;;;;1.90;1.70;;;13.30;99.90;;;;;;5116720;28;20543;-52
2023/05/12 06:49:41;;;;;;;1.70;1.60;;;13.30;99.90;;;;;;5117219;28;20249;-50
2023/05/12 06:52:07;;;;;;;3.60;2.17;;;13.40;99.90;;;;;;5116575;28;20647;-51
2023/05/12 06:54:32;;;;;;;2.23;1.73;;;13.40;99.90;;;;;;5116542;28;20171;-52
2023/05/12 06:56:58;;;;;;;2.10;1.90;;;13.40;99.90;;;;;;5116484;28;20174;-50
2023/05/12 06:59:24;;;;;;;2.87;2.00;;;13.40;99.90;;;;;;5117391;28;20178;-49
2023/05/12 07:01:49;;;;;;;2.20;2.00;;;13.40;99.90;;;;;;5119109;28;20236;-49
2023/05/12 07:04:15;;;;;;;2.63;2.00;;;13.40;99.90;;;;;;5118427;28;20256;-51
2023/05/12 07:06:41;;;;;;;2.50;2.23;;;13.40;99.90;;;;;;5115017;28;20186;-51
2023/05/12 07:09:06;;;;;;;3.30;2.43;;;13.50;99.90;;;;;;5116193;28;20171;-52
2023/05/12 07:11:32;;;;;;;2.20;2.00;;;13.50;99.90;;;;;;5116548;28;20535;-50
2023/05/12 07:13:57;;;;;;;2.27;2.07;;;13.50;99.90;;;;;;5116117;28;20198;-51
2023/05/12 07:16:23;;;;;;;3.50;2.20;;;13.50;99.90;;;;;;5116080;28;20206;-49
2023/05/12 07:18:49;;;;;;;2.37;2.17;;;13.50;99.90;;;;;;5116184;28;20175;-51
2023/05/12 07:21:15;;;;;;;2.20;2.00;;;13.50;99.90;;;;;;5115946;28;20198;-49
2023/05/12 07:23:40;;;;;;;2.53;2.13;;;13.40;99.90;;;;;;5115904;28;20194;-53
2023/05/12 07:26:06;;;;;;;4.27;1.90;;;13.50;99.90;;;;;;5115976;28;20178;-50
2023/05/12 07:28:35;;;;;;;3.67;2.30;;;13.50;99.90;;;;;;5115838;28;20162;-51
2023/05/12 07:31:01;;;;;;;2.17;1.97;;;13.50;99.90;;;;;;5116042;28;20186;-50
2023/05/12 07:33:27;;;;;;;2.23;1.93;;;13.50;99.90;;;;;;5114385;28;20199;-49
2023/05/12 07:35:53;;;;;;;2.93;2.10;;;13.50;99.90;;;;;;5115687;28;20184;-50
2023/05/12 07:38:18;;;;;;;3.03;2.10;;;13.50;99.90;;;;;;5115993;28;20277;-50
2023/05/12 07:40:44;;;;;;;3.23;2.17;;;13.50;99.90;;;;;;5115870;28;20194;-50
2023/05/12 07:43:10;;;;;;;2.27;1.90;;;13.60;99.90;;;;;;5115777;28;20254;-50
2023/05/12 07:45:36;;;;;;;1.70;1.60;;;13.70;99.90;;;;;;5115792;28;20173;-50
2023/05/12 07:48:02;;;;;;;1.67;1.57;;;13.70;99.90;;;;;;5115730;28;20166;-51
2023/05/12 07:50:28;;;;;;;3.17;1.67;;;13.70;99.90;;;;;;5115671;28;20178;-49
2023/05/12 07:52:54;;;;;;;1.73;1.63;;;13.70;99.90;;;;;;5115275;28;20201;-51
2023/05/12 07:55:21;;;;;;;2.00;1.80;;;13.70;99.90;;;;;;5115349;28;20179;-51
2023/05/12 07:57:47;;;;;;;3.07;1.97;;;13.80;99.90;;;;;;5115555;28;20170;-51
2023/05/12 08:00:13;;;;;;;1.90;1.70;;;13.80;99.90;;;;;;5115120;28;20535;-52
2023/05/12 08:02:40;;;;;;;2.53;1.63;;;13.90;99.90;;;;;;5115302;28;20194;-50
2023/05/12 08:05:08;;;;;;;3.23;1.30;;;14.10;99.90;;;;;;5115217;28;20659;-50
2023/05/12 08:07:34;;;;;;;2.00;1.70;;;14.20;99.90;;;;;;5115317;28;20174;-52
2023/05/12 08:10:01;;;;;;;2.60;1.30;;;14.30;99.90;;;;;;5115107;28;20162;-51
2023/05/12 08:12:27;;;;;;;2.23;1.60;;;14.40;99.90;;;;;;5115173;28;20697;-50
2023/05/12 08:14:52;;;;;;;1.67;1.53;;;14.60;99.90;;;;;;5114996;28;20189;-50
2023/05/12 08:17:18;;;;;;;1.43;1.33;;;14.60;99.90;;;;;;5115001;28;20193;-50
2023/05/12 08:19:43;;;;;;;1.30;1.20;;;14.70;99.90;;;;;;5114351;28;20552;-51
2023/05/12 08:22:09;;;;;;;2.83;1.60;;;14.80;99.90;;;;;;5114575;28;20233;-50
2023/05/12 08:24:34;;;;;;;1.30;1.20;;;14.90;99.90;;;;;;5115033;28;20174;-51
2023/05/12 08:27:00;;;;;;;1.37;1.27;;;15.00;99.90;;;;;;5115337;28;20176;-51
2023/05/12 08:29:26;;;;;;;2.13;1.33;;;15.00;99.90;;;;;;5114659;28;20202;-50
2023/05/12 08:31:51;;;;;;;1.60;1.50;;;15.10;99.90;;;;;;5114511;28;20187;-52
2023/05/12 08:34:17;;;;;;;1.43;1.33;;;15.20;99.90;;;;;;5113210;28;20204;-51
2023/05/12 08:36:42;;;;;;;2.03;1.43;;;15.30;99.90;;;;;;5114596;28;20682;-50
2023/05/12 08:39:11;;;;;;;1.63;1.53;;;15.40;99.90;;;;;;5114484;28;20261;-51
2023/05/12 08:42:03;;;;;;;1.60;1.50;;;15.40;99.90;;;;;;5114619;28;20294;-50
2023/05/12 08:44:30;;;;;;;2.27;1.70;;;15.40;99.90;;;;;;5085585;28;20196;-51
2023/05/12 08:46:59;;;;;;;2.17;1.60;;;15.40;99.90;;;;;;5114346;28;20162;-50
2023/05/12 08:49:28;;;;;;;2.00;1.80;;;15.50;99.90;;;;;;5114809;28;20570;-50
2023/05/12 08:51:55;;;;;;;1.60;1.50;;;15.50;99.90;;;;;;5114767;28;20242;-52
2023/05/12 08:54:22;;;;;;;1.90;1.80;;;15.60;99.90;;;;;;5114373;28;20230;-51
2023/05/12 08:56:50;;;;;;;2.70;1.87;;;15.80;99.90;;;;;;5114187;28;20174;-52
2023/05/12 08:59:16;;;;;;;1.93;1.70;;;16.00;99.90;;;;;;5114106;28;20186;-50
2023/05/12 09:01:43;;;;;;;1.50;1.40;;;16.10;99.90;;;;;;5114454;28;20798;-50
2023/05/12 09:04:09;;;;;;;2.23;1.17;;;16.20;99.90;;;;;;5113943;28;20193;-50
2023/05/12 09:06:35;;;;;;;1.77;1.50;;;16.40;99.90;;;;;;5114268;28;20186;-49
2023/05/12 09:09:01;;;;;;;1.87;1.63;;;16.50;99.90;;;;;;5114002;28;20548;-49
2023/05/12 09:11:27;;;;;;;1.70;1.47;;;16.70;99.90;;;;;;5114202;28;20182;-51
2023/05/12 09:14:05;;;;;;;2.00;1.47;;;16.80;99.90;;;;;;5113824;28;20670;-52
2023/05/12 09:16:32;;;;;;;1.70;1.60;;;16.80;99.90;;;;;;5113832;28;20186;-51
2023/05/12 09:19:00;;;;;;;1.67;1.57;;;16.90;99.90;;;;;;5113967;28;20179;-51
2023/05/12 09:21:27;;;;;;;1.30;1.20;;;17.00;99.90;;;;;;5113624;28;20238;-52
2023/05/12 09:23:57;;;;;;;2.10;1.57;;;17.00;99.90;;;;;;5114022;28;20194;-52
2023/05/12 09:26:25;;;;;;;1.93;1.50;;;17.10;99.90;;;;;;5113965;28;20551;-50
2023/05/12 09:29:02;;;;;;;1.57;1.47;;;17.10;99.90;;;;;;5113965;28;20257;-50
2023/05/12 09:31:28;;;;;;;2.90;1.50;;;17.20;99.90;;;;;;5112495;28;20174;-52
2023/05/12 09:33:54;;;;;;;2.13;1.50;;;17.30;99.90;;;;;;5117794;28;20205;-51
2023/05/12 09:36:21;;;;;;;1.93;1.50;;;17.30;99.90;;;;;;5117812;28;20182;-50
2023/05/12 09:39:08;;;;;;;1.53;1.40;;;17.40;99.90;;;;;;5117898;28;20181;-52
2023/05/12 09:41:37;;;;;;;1.23;1.13;;;17.50;99.90;;;;;;5117896;28;20216;-50
2023/05/12 09:44:03;;;;;;;1.63;1.53;;;17.60;99.90;;;;;;5117717;28;20339;-50
2023/05/12 09:46:28;;;;;;;2.33;1.17;;;17.70;99.90;;;;;;5117803;28;20181;-51
2023/05/12 09:48:56;;;;;;;1.20;1.10;;;17.80;99.90;;;;;;5117795;28;20541;-50
2023/05/12 09:51:22;;;;;;;1.30;1.20;;;17.80;99.90;;;;;;5118260;28;20267;-53
2023/05/12 09:53:48;;;;;;;4.63;1.33;;;17.80;99.90;;;;;;5117553;28;20202;-51
2023/05/12 09:56:15;;;;;;;1.33;1.00;;;17.80;99.90;;;;;;5117905;28;20174;-50
2023/05/12 09:58:47;;;;;;;1.53;1.00;;;17.90;99.90;;;;;;5117555;28;20189;-51
2023/05/12 10:01:17;;;;;;;1.73;1.00;;;17.90;99.90;;;;;;5117436;28;20209;-51
2023/05/12 10:03:49;;;;;;;1.50;0.90;;;18.00;99.90;;;;;;5117715;28;20255;-50
2023/05/12 10:06:35;;;;;;;3.80;1.13;;;18.10;99.90;;;;;;5117663;28;20170;-51
2023/05/12 10:09:28;;;;;;;1.40;1.10;;;18.20;99.90;;;;;;5117739;28;20162;-49
2023/05/12 10:11:55;;;;;;;1.10;1.10;;;18.30;99.90;;;;;;5117083;28;20191;-51
2023/05/12 10:14:21;;;;;;;2.10;0.87;;;18.40;99.90;;;;;;5117488;28;20225;-49
2023/05/12 10:16:48;;;;;;;1.10;1.00;;;18.40;99.90;;;;;;5117585;28;20235;-51
2023/05/12 10:19:14;;;;;;;1.73;1.10;;;18.60;99.90;;;;;;5117399;28;20178;-50
2023/05/12 10:21:44;;;;;;;1.27;1.07;;;18.70;99.90;;;;;;5117373;28;20611;-49
2023/05/12 10:24:13;;;;;;;1.20;1.10;;;18.80;99.90;;;;;;5117033;28;20433;-49
2023/05/12 10:26:40;;;;;;;1.00;1.00;;;18.80;99.90;;;;;;5117271;28;20179;-49
2023/05/12 10:29:07;;;;;;;1.33;1.10;;;18.90;99.90;;;;;;5115727;28;20723;-51
2023/05/12 10:31:34;;;;;;;1.47;1.33;;;19.00;99.90;;;;;;5117224;28;20170;-50
2023/05/12 10:34:02;;;;;;;1.23;1.10;;;19.00;99.90;;;;;;5116786;28;20677;-52
2023/05/12 10:36:28;;;;;;;3.17;1.20;;;19.00;99.90;;;;;;5116903;28;20189;-50
2023/05/12 10:38:55;;;;;;;1.37;1.00;;;19.00;99.90;;;;;;5115510;28;20714;-50
2023/05/12 10:41:31;;;;;;;2.20;0.90;;;19.10;99.90;;;;;;5116649;28;20264;-50
2023/05/12 10:43:57;;;;;;;0.93;0.90;;;19.20;99.90;;;;;;5119426;28;20228;-50
2023/05/12 10:46:25;;;;;;;0.97;0.97;;;19.40;99.90;;;;;;5119015;28;20214;-48
2023/05/12 10:49:12;;;;;;;1.30;1.20;;;19.50;99.90;;;;;;5117928;28;20269;-51
2023/05/12 10:51:43;;;;;;;1.07;1.03;;;19.70;99.90;;;;;;5116883;28;20649;-51
2023/05/12 10:54:11;;;;;;;1.67;0.93;;;19.90;99.90;;;;;;5116421;28;20198;-49
2023/05/12 10:56:39;;;;;;;2.13;1.10;;;19.90;99.90;;;;;;5116465;28;20257;-50
2023/05/12 10:59:16;;;;;;;1.93;0.97;;;20.00;99.90;;;;;;5116684;28;20643;-49
2023/05/12 11:02:02;;;;;;;1.53;1.13;;;20.10;99.90;;;;;;5116856;28;20277;-50
2023/05/12 11:04:48;;;;;;;1.10;1.00;;;20.20;99.90;;;;;;5116589;28;20162;-49
2023/05/12 11:07:15;;;;;;;0.90;0.90;;;20.30;99.90;;;;;;5116281;28;20273;-50
2023/05/12 11:09:45;;;;;;;1.30;1.20;;;20.40;99.90;;;;;;5116394;28;20182;-51
2023/05/12 11:12:12;;;;;;;1.80;1.33;;;20.40;99.90;;;;;;5116330;28;20677;-50
2023/05/12 11:14:39;;;;;;;2.33;1.30;;;20.30;99.90;;;;;;5116212;28;20178;-50
2023/05/12 11:17:05;;;;;;;2.10;1.20;;;20.40;99.90;;;;;;5116100;28;20261;-49
2023/05/12 11:19:32;;;;;;;3.03;1.03;;;20.40;99.90;;;;;;5116683;28;20601;-48
2023/05/12 11:22:04;;;;;;;2.50;1.07;;;20.40;99.90;;;;;;5114502;28;20212;-50
2023/05/12 11:24:30;;;;;;;3.77;1.20;;;20.60;99.90;;;;;;5116234;28;20170;-48
2023/05/12 11:26:56;;;;;;;1.27;1.17;;;20.70;99.90;;;;;;5115895;28;20272;-49
2023/05/12 11:29:21;;;;;;;1.30;1.20;;;20.90;99.90;;;;;;5116148;28;20178;-50
2023/05/12 11:31:48;;;;;;;1.60;1.10;;;21.00;99.90;;;;;;5115992;28;20182;-51
2023/05/12 11:34:14;;;;;;;1.23;1.13;;;21.20;99.90;;;;;;5115923;28;20233;-50
2023/05/12 11:36:41;;;;;;;2.90;0.97;;;21.30;99.90;;;;;;5115797;28;20190;-48
2023/05/12 11:39:14;;;;;;;1.00;1.00;;;21.40;99.90;;;;;;5115866;28;20243;-49
2023/05/12 11:41:40;;;;;;;1.43;1.30;;;21.40;99.90;;;;;;5115724;28;20213;-50
2023/05/12 11:44:20;;;;;;;2.50;1.33;;;21.50;99.90;;;;;;5115519;28;20553;-50
2023/05/12 11:47:00;;;;;;;1.63;1.20;;;21.70;99.90;;;;;;5115463;28;20185;-50
2023/05/12 11:49:27;;;;;;;2.97;1.30;;;21.80;99.90;;;;;;5114156;28;20646;-50
2023/05/12 11:51:55;;;;;;;2.97;1.30;;;21.80;99.90;;;;;;5115958;28;20311;-50
2023/05/12 11:54:22;;;;;;;3.00;1.50;;;21.80;99.90;;;;;;5114699;28;20206;-50
2023/05/12 11:56:49;;;;;;;1.83;1.10;;;22.00;99.90;;;;;;5115048;28;20171;-49
2023/05/12 11:59:32;;;;;;;1.87;0.97;;;22.20;99.90;;;;;;5115204;28;20666;-48
2023/05/12 12:01:59;;;;;;;1.47;1.20;;;22.20;99.90;;;;;;5115365;28;20198;-49
2023/05/12 12:04:32;;;;;;;2.80;1.30;;;22.00;99.90;;;;;;5113788;28;20646;-49
2023/05/12 12:06:58;;;;;;;1.53;1.43;;;21.80;99.90;;;;;;5115301;28;20550;-49
2023/05/12 12:09:35;;;;;;;3.20;1.30;;;21.50;99.90;;;;;;5115279;28;20178;-49
2023/05/12 12:12:01;;;;;;;1.07;0.97;;;21.10;99.90;;;;;;5115202;28;20178;-50
2023/05/12 12:14:27;;;;;;;1.63;1.40;;;20.80;99.90;;;;;;5115382;28;20166;-50
2023/05/12 12:16:53;;;;;;;3.00;1.33;;;20.70;99.90;;;;;;5114849;28;20585;-49
2023/05/12 12:19:18;;;;;;;1.63;0.83;;;20.70;99.90;;;;;;5114793;28;20290;-49
2023/05/12 12:21:44;;;;;;;1.10;1.00;;;20.70;99.90;;;;;;5115045;28;20555;-49
2023/05/12 12:24:10;;;;;;;1.20;1.10;;;20.80;99.90;;;;;;5114913;28;20234;-50
2023/05/12 12:26:35;;;;;;;1.53;1.30;;;21.00;99.90;;;;;;5115003;28;20650;-49
2023/05/12 12:29:01;;;;;;;1.77;1.03;;;21.30;99.90;;;;;;5114911;28;20646;-50
2023/05/12 12:31:26;;;;;;;1.30;1.20;;;21.50;99.90;;;;;;5114591;28;20646;-49
2023/05/12 12:33:52;;;;;;;1.53;0.97;;;21.60;99.90;;;;;;5114826;28;20613;-49
2023/05/12 12:36:18;;;;;;;3.00;1.20;;;21.70;99.90;;;;;;5114516;28;20250;-49
2023/05/12 12:38:43;;;;;;;1.97;1.27;;;21.90;99.90;;;;;;5114491;28;20256;-50
2023/05/12 12:41:09;;;;;;;2.27;1.30;;;22.10;99.90;;;;;;5113139;28;20242;-48
2023/05/12 12:43:35;;;;;;;2.70;1.50;;;22.30;99.90;;;;;;5114386;28;20194;-49